Time;durP1;ratioP1;P1;durP2;ratioP2;P2;SDS_P1;SDS_P2;PMS_P1;PMS_P2;Temp;Humidity;BMP_temperature;BMP_pressure;BME280_temperature;BME280_humidity;BME280_pressure;Samples;Min_cycle;Max_cycle;Signal;HPM_P1;HPM_P2
2023/10/27 00:02:13;;;;;;;3.67;3.20;;;;;;;7.64;100.00;98639.78;5004877;28;20207;-81
2023/10/27 00:04:39;;;;;;;3.70;2.83;;;;;;;7.60;100.00;98638.34;5014168;28;20227;-82
2023/10/27 00:07:07;;;;;;;4.03;3.17;;;;;;;7.60;100.00;98643.63;5005400;28;20222;-82
2023/10/27 00:09:37;;;;;;;5.27;3.10;;;;;;;7.57;100.00;98649.19;5005952;28;20851;-82
2023/10/27 00:12:04;;;;;;;4.67;3.40;;;;;;;7.54;100.00;98654.72;5007654;28;20283;-81
2023/10/27 00:14:30;;;;;;;4.23;3.30;;;;;;;7.52;100.00;98640.81;5012164;28;20254;-81
2023/10/27 00:16:57;;;;;;;3.63;3.17;;;;;;;7.50;100.00;98637.44;5012083;28;20677;-82
2023/10/27 00:19:23;;;;;;;5.50;3.23;;;;;;;7.49;100.00;98637.56;5018999;28;20223;-83
2023/10/27 00:21:50;;;;;;;4.13;3.63;;;;;;;7.46;100.00;98636.00;5003811;28;20687;-82
2023/10/27 00:24:18;;;;;;;6.80;3.33;;;;;;;7.46;100.00;98637.81;4998606;28;20621;-82
2023/10/27 00:26:45;;;;;;;4.40;3.03;;;;;;;7.43;100.00;98636.25;5001853;28;20223;-82
2023/10/27 00:29:11;;;;;;;5.30;3.40;;;;;;;7.40;100.00;98631.19;5004781;28;20203;-81
2023/10/27 00:31:37;;;;;;;4.57;3.47;;;;;;;7.40;100.00;98630.34;5003951;28;20196;-82
2023/10/27 00:34:04;;;;;;;3.83;3.17;;;;;;;7.35;100.00;98620.13;5001090;28;20210;-82
2023/10/27 00:36:30;;;;;;;11.90;3.53;;;;;;;7.34;100.00;98629.06;5004855;28;20203;-81
2023/10/27 00:38:57;;;;;;;7.60;2.93;;;;;;;7.31;100.00;98627.53;5008530;28;20225;-81
2023/10/27 00:41:25;;;;;;;8.30;3.07;;;;;;;7.30;100.00;98627.66;5004685;28;20223;-82
2023/10/27 00:43:51;;;;;;;2.97;2.67;;;;;;;7.29;100.00;98625.97;5004636;28;20214;-82
2023/10/27 00:46:18;;;;;;;2.90;2.60;;;;;;;7.27;100.00;98625.25;5010281;28;20211;-81
2023/10/27 00:48:44;;;;;;;8.63;2.73;;;;;;;7.27;100.00;98619.94;5009907;28;20206;-81
2023/10/27 00:51:11;;;;;;;13.93;3.07;;;;;;;7.22;100.00;98609.72;5011110;28;20252;-81
2023/10/27 00:53:39;;;;;;;17.70;5.37;;;;;;;7.15;100.00;98615.66;5002987;28;20218;-81
2023/10/27 00:56:06;;;;;;;8.93;4.23;;;;;;;7.08;100.00;98615.31;5002107;28;20231;-81
2023/10/27 00:58:35;;;;;;;6.43;3.43;;;;;;;7.01;100.00;98614.13;5001279;28;20252;-81
2023/10/27 01:01:02;;;;;;;5.10;3.10;;;;;;;6.95;100.00;98615.47;5005868;28;20224;-82
2023/10/27 01:03:30;;;;;;;4.63;3.07;;;;;;;6.93;100.00;98624.50;4999416;28;20510;-81
2023/10/27 01:05:56;;;;;;;3.60;3.00;;;;;;;6.90;100.00;98611.50;5006819;28;20874;-81
2023/10/27 01:08:23;;;;;;;4.30;3.17;;;;;;;6.88;100.00;98603.69;5000724;28;20211;-81
2023/10/27 01:10:50;;;;;;;5.87;3.53;;;;;;;6.87;100.00;98612.59;5005645;28;20227;-82
2023/10/27 01:13:16;;;;;;;5.13;3.43;;;;;;;6.85;100.00;98618.97;5008775;28;20215;-82
2023/10/27 01:15:44;;;;;;;8.37;4.20;;;;;;;6.83;100.00;98611.16;5003777;28;20226;-82
2023/10/27 01:18:10;;;;;;;5.17;3.80;;;;;;;6.82;100.00;98620.03;5008802;28;20203;-82
2023/10/27 01:20:37;;;;;;;5.73;3.90;;;;;;;6.80;100.00;98619.34;5003518;28;20203;-82
2023/10/27 01:23:04;;;;;;;4.80;3.83;;;;;;;6.80;100.00;98624.66;5002572;28;20211;-81
2023/10/27 01:25:31;;;;;;;10.80;5.10;;;;;;;6.79;100.00;98617.66;5001075;28;20227;-82
2023/10/27 01:27:57;;;;;;;6.77;4.93;;;;;;;6.79;100.00;98627.41;5004608;28;20235;-81
2023/10/27 01:30:24;;;;;;;6.23;4.53;;;;;;;6.78;100.00;98631.88;5004270;28;20227;-82
2023/10/27 01:32:51;;;;;;;5.80;4.73;;;;;;;6.77;100.00;98627.53;5001258;28;20218;-80
2023/10/27 01:35:17;;;;;;;6.30;5.30;;;;;;;6.76;100.00;98625.84;5004512;28;20231;-82
2023/10/27 01:37:44;;;;;;;9.73;5.20;;;;;;;6.76;100.00;98623.19;5006184;28;20791;-81
2023/10/27 01:40:12;;;;;;;13.33;5.80;;;;;;;6.75;100.00;98618.03;5007373;28;20203;-82
2023/10/27 01:42:39;;;;;;;15.97;4.67;;;;;;;6.69;100.00;98614.06;5001308;28;20211;-82
2023/10/27 01:45:07;;;;;;;25.13;6.50;;;;;;;6.64;100.00;98610.94;5000637;28;20231;-81
2023/10/27 01:47:34;;;;;;;7.13;4.90;;;;;;;6.61;100.00;98604.09;5000640;28;20211;-82
2023/10/27 01:50:00;;;;;;;8.37;5.20;;;;;;;6.60;100.00;98602.44;4999996;28;20827;-81
2023/10/27 01:52:27;;;;;;;14.17;5.30;;;;;;;6.60;100.00;98609.53;5012018;28;20211;-82
2023/10/27 01:54:54;;;;;;;8.53;4.87;;;;;;;6.58;100.00;98612.28;5008125;28;20231;-82
2023/10/27 01:57:23;;;;;;;8.87;5.20;;;;;;;6.54;100.00;98600.25;5001202;28;20218;-81
2023/10/27 01:59:50;;;;;;;10.13;5.00;;;;;;;6.57;100.00;98607.13;5003689;28;20206;-82
2023/10/27 02:02:16;;;;;;;23.13;5.57;;;;;;;6.54;100.00;98604.72;5004500;28;20218;-81
2023/10/27 02:04:43;;;;;;;23.40;6.00;;;;;;;6.53;100.00;98598.56;5004103;28;20334;-82
2023/10/27 02:07:11;;;;;;;8.67;4.17;;;;;;;6.52;100.00;98596.88;4998614;28;20652;-82
2023/10/27 02:09:39;;;;;;;7.27;3.90;;;;;;;6.50;100.00;98604.09;5004614;28;20203;-81
2023/10/27 02:12:07;;;;;;;7.93;4.40;;;;;;;6.45;100.00;98616.84;5000537;28;20667;-81
2023/10/27 02:14:35;;;;;;;6.67;4.17;;;;;;;6.42;100.00;98616.25;5000111;28;20220;-82
2023/10/27 02:17:01;;;;;;;9.50;5.10;;;;;;;6.41;100.00;98620.72;5003504;28;20199;-81
2023/10/27 02:19:28;;;;;;;6.57;4.67;;;;;;;6.42;100.00;98618.91;5006974;28;20208;-82
2023/10/27 02:21:54;;;;;;;7.50;4.43;;;;;;;6.41;100.00;98612.78;5002600;28;20207;-81
2023/10/27 02:24:21;;;;;;;23.73;5.17;;;;;;;6.41;100.00;98614.56;5000043;28;20232;-82
2023/10/27 02:26:47;;;;;;;6.40;4.03;;;;;;;6.41;100.00;98619.88;5005161;28;20202;-81
2023/10/27 02:29:14;;;;;;;9.03;4.60;;;;;;;6.36;100.00;98609.63;5007299;28;20207;-81
2023/10/27 02:31:41;;;;;;;5.53;4.13;;;;;;;6.36;100.00;98606.16;5006180;28;20231;-81
2023/10/27 02:34:08;;;;;;;6.10;4.73;;;;;;;6.35;100.00;98610.59;5002259;28;20234;-82
2023/10/27 02:36:34;;;;;;;7.20;5.00;;;;;;;6.34;100.00;98611.56;5003073;28;20214;-81
2023/10/27 02:39:01;;;;;;;7.03;4.43;;;;;;;6.34;100.00;98598.34;5003166;28;20199;-81
2023/10/27 02:41:28;;;;;;;10.17;5.00;;;;;;;6.33;100.00;98604.59;4997333;28;20202;-81
2023/10/27 02:43:54;;;;;;;6.47;4.83;;;;;;;6.34;100.00;98597.50;5009780;28;20274;-82
2023/10/27 02:46:20;;;;;;;9.00;4.90;;;;;;;6.34;100.00;98598.34;5000224;28;20810;-82
2023/10/27 02:48:48;;;;;;;7.53;5.33;;;;;;;6.36;100.00;98600.88;4998776;28;20601;-81
2023/10/27 02:51:16;;;;;;;6.90;5.13;;;;;;;6.35;100.00;98594.75;5000997;28;20578;-82
2023/10/27 02:53:42;;;;;;;7.63;5.90;;;;;;;6.35;100.00;98596.53;5002158;28;20590;-81
2023/10/27 02:56:10;;;;;;;8.70;5.63;;;;;;;6.37;100.00;98595.47;4999530;28;20258;-82
2023/10/27 02:58:36;;;;;;;7.10;4.77;;;;;;;6.36;100.00;98596.41;5000665;28;20255;-82
2023/10/27 03:01:07;;;;;;;7.87;5.23;;;;;;;6.36;100.00;98588.50;5006216;28;20724;-82
2023/10/27 03:03:34;;;;;;;7.80;5.83;;;;;;;6.35;100.00;98594.75;5003585;28;20271;-82
2023/10/27 03:06:02;;;;;;;12.33;6.57;;;;;;;6.35;100.00;98594.75;4998786;28;20255;-81
2023/10/27 03:08:28;;;;;;;9.50;6.80;;;;;;;6.36;100.00;98593.78;5001921;28;20215;-81
2023/10/27 03:10:55;;;;;;;10.67;6.47;;;;;;;6.35;100.00;98585.97;5002973;28;20223;-81
2023/10/27 03:16:04;;;;;;;26.53;8.20;;;;;;;6.36;100.00;98590.28;4993699;28;20234;-81
2023/10/27 03:18:30;;;;;;;9.60;7.30;;;;;;;6.36;100.00;98585.00;5004984;28;20241;-81
2023/10/27 03:20:57;;;;;;;14.07;7.10;;;;;;;6.36;100.00;98585.84;5001635;28;20207;-82
2023/10/27 03:23:26;;;;;;;12.07;6.90;;;;;;;6.38;100.00;98585.72;4999824;28;20215;-81
2023/10/27 03:25:53;;;;;;;12.90;6.97;;;;;;;6.39;100.00;98582.13;5001876;28;20238;-81
2023/10/27 03:28:20;;;;;;;11.27;7.23;;;;;;;6.40;100.00;98583.81;4998037;28;20207;-82
2023/10/27 03:30:49;;;;;;;9.77;6.40;;;;;;;6.41;100.00;98582.84;5004862;28;20238;-81
2023/10/27 03:33:16;;;;;;;11.63;7.13;;;;;;;6.43;100.00;98586.22;4999773;28;20231;-82
2023/10/27 03:35:43;;;;;;;26.27;7.70;;;;;;;6.43;100.00;98594.16;5000301;28;20227;-80
2023/10/27 03:38:10;;;;;;;9.13;6.63;;;;;;;6.45;100.00;98592.22;5015961;28;20268;-82
2023/10/27 03:40:38;;;;;;;10.00;6.10;;;;;;;6.45;100.00;98593.03;5003784;28;20663;-81
2023/10/27 03:43:04;;;;;;;36.17;8.33;;;;;;;6.43;100.00;98600.28;5003753;28;20199;-81
2023/10/27 03:45:31;;;;;;;36.83;9.10;;;;;;;6.44;100.00;98598.47;4999469;28;20274;-81
2023/10/27 03:47:57;;;;;;;8.50;6.90;;;;;;;6.43;100.00;98592.34;5007095;28;20214;-81
2023/10/27 03:50:24;;;;;;;10.17;7.23;;;;;;;6.43;100.00;98592.34;5001691;28;20240;-82
2023/10/27 03:52:50;;;;;;;13.23;7.33;;;;;;;6.43;100.00;98596.78;5002567;28;20208;-82
2023/10/27 03:55:17;;;;;;;10.53;7.67;;;;;;;6.45;100.00;98589.59;4996745;28;20317;-81
2023/10/27 03:57:45;;;;;;;11.03;8.07;;;;;;;6.45;100.00;98586.94;5007667;28;20695;-82
2023/10/27 04:00:13;;;;;;;10.03;7.57;;;;;;;6.46;100.00;98586.78;5005395;28;20238;-81
2023/10/27 04:02:40;;;;;;;12.10;7.00;;;;;;;6.47;100.00;98593.75;5000539;28;20203;-81
2023/10/27 04:05:07;;;;;;;35.90;8.77;;;;;;;6.46;100.00;98591.22;4999068;28;20238;-81
2023/10/27 04:07:33;;;;;;;16.33;6.83;;;;;;;6.44;100.00;98582.59;4999782;28;20207;-81
2023/10/27 04:10:00;;;;;;;11.20;6.33;;;;;;;6.43;100.00;98586.22;5008562;28;20212;-80
2023/10/27 04:12:26;;;;;;;10.33;7.57;;;;;;;6.45;100.00;98590.41;5007064;28;20250;-82
2023/10/27 04:14:55;;;;;;;12.73;7.97;;;;;;;6.47;100.00;98584.97;5003742;28;20297;-82
2023/10/27 04:17:21;;;;;;;20.17;8.43;;;;;;;6.48;100.00;98589.31;5003419;28;20211;-81
2023/10/27 04:19:48;;;;;;;13.83;7.50;;;;;;;6.47;100.00;98587.63;5009257;28;20207;-82
2023/10/27 04:22:14;;;;;;;18.60;8.13;;;;;;;6.48;100.00;98581.38;5006878;28;20211;-80
2023/10/27 04:24:41;;;;;;;19.30;8.07;;;;;;;6.48;100.00;98576.94;5004879;28;20292;-81
2023/10/27 04:27:07;;;;;;;15.53;6.93;;;;;;;6.46;100.00;98576.22;5005859;28;20207;-82
2023/10/27 04:29:34;;;;;;;17.27;6.83;;;;;;;6.42;100.00;98572.16;5000410;28;20208;-81
2023/10/27 04:32:02;;;;;;;24.90;7.80;;;;;;;6.41;100.00;98561.69;5006793;28;20305;-81
2023/10/27 04:34:28;;;;;;;14.53;7.13;;;;;;;6.40;100.00;98555.56;5006560;28;20256;-82
2023/10/27 04:36:55;;;;;;;13.77;6.90;;;;;;;6.39;100.00;98560.97;5011425;28;20212;-81
2023/10/27 04:39:21;;;;;;;8.20;6.57;;;;;;;6.35;100.00;98557.72;5007098;28;20849;-81
2023/10/27 04:41:48;;;;;;;14.97;6.93;;;;;;;6.34;100.00;98558.69;5006445;28;20561;-81
2023/10/27 04:44:17;;;;;;;11.00;7.10;;;;;;;6.35;100.00;98563.00;5011931;28;20219;-82
2023/10/27 04:46:43;;;;;;;10.20;7.17;;;;;;;6.36;100.00;98558.56;5007334;28;20199;-81
2023/10/27 04:49:11;;;;;;;12.83;7.23;;;;;;;6.36;100.00;98558.56;5001996;28;20214;-82
2023/10/27 04:51:37;;;;;;;20.23;8.10;;;;;;;6.36;100.00;98558.56;5006787;28;20229;-82
2023/10/27 04:54:04;;;;;;;13.53;6.87;;;;;;;6.36;100.00;98564.69;5005256;28;20219;-81
2023/10/27 04:56:30;;;;;;;14.33;8.00;;;;;;;6.36;100.00;98554.13;5001350;28;20207;-81
2023/10/27 04:58:57;;;;;;;9.73;7.17;;;;;;;6.35;100.00;98552.44;5013358;28;20554;-83
2023/10/27 05:01:25;;;;;;;10.00;7.90;;;;;;;6.37;100.00;98560.25;5006698;28;20651;-82
2023/10/27 05:03:51;;;;;;;12.10;8.57;;;;;;;6.37;100.00;98557.59;5007834;28;20206;-82
2023/10/27 05:06:19;;;;;;;10.17;7.67;;;;;;;6.36;100.00;98559.41;5005109;28;20667;-80
2023/10/27 05:08:46;;;;;;;11.40;8.73;;;;;;;6.37;100.00;98557.59;5010822;28;20208;-81
2023/10/27 05:11:13;;;;;;;10.27;6.83;;;;;;;6.37;100.00;98557.59;5005718;28;20226;-81
2023/10/27 05:13:39;;;;;;;10.90;6.60;;;;;;;6.36;100.00;98558.56;5006639;28;20668;-82
2023/10/27 05:16:07;;;;;;;23.43;7.57;;;;;;;6.34;100.00;98555.19;5004063;28;20714;-82
2023/10/27 05:18:33;;;;;;;11.40;6.57;;;;;;;6.33;100.00;98550.88;5002041;28;20207;-81
2023/10/27 05:21:00;;;;;;;16.43;7.17;;;;;;;6.32;100.00;98551.84;5005357;28;20207;-82
2023/10/27 05:23:27;;;;;;;9.90;6.47;;;;;;;6.30;100.00;98551.13;5006902;28;20214;-81
2023/10/27 05:25:54;;;;;;;16.37;7.07;;;;;;;6.30;100.00;98553.75;5039862;28;20235;-82
2023/10/27 05:28:20;;;;;;;8.20;6.37;;;;;;;6.27;100.00;98555.69;5005019;28;20694;-81
2023/10/27 05:30:50;;;;;;;9.17;6.37;;;;;;;6.27;100.00;98550.38;5007874;28;20561;-81
2023/10/27 05:33:17;;;;;;;10.07;6.90;;;;;;;6.28;100.00;98552.06;5008605;28;20264;-81
2023/10/27 05:35:43;;;;;;;9.50;6.50;;;;;;;6.31;100.00;98556.28;5005531;28;20251;-82
2023/10/27 05:38:09;;;;;;;9.97;6.80;;;;;;;6.32;100.00;98557.13;4999620;28;20203;-82
2023/10/27 05:40:37;;;;;;;10.90;7.00;;;;;;;6.33;100.00;98557.00;5003463;28;20215;-81
2023/10/27 05:43:04;;;;;;;9.60;7.20;;;;;;;6.34;100.00;98555.19;5020496;28;20215;-81
2023/10/27 05:45:30;;;;;;;10.63;7.27;;;;;;;6.34;100.00;98561.34;4995267;28;20258;-81
2023/10/27 05:47:57;;;;;;;9.17;7.00;;;;;;;6.35;100.00;98564.81;5007970;28;20207;-82
2023/10/27 05:50:23;;;;;;;9.40;6.50;;;;;;;6.35;100.00;98562.16;5010092;28;21289;-81
2023/10/27 05:52:50;;;;;;;7.83;6.40;;;;;;;6.36;100.00;98559.41;5004484;28;20231;-81
2023/10/27 05:55:16;;;;;;;9.00;6.80;;;;;;;6.37;100.00;98550.53;5003186;28;20235;-81
2023/10/27 05:57:44;;;;;;;9.03;7.13;;;;;;;6.40;100.00;98554.72;4993160;28;20211;-82
2023/10/27 06:00:11;;;;;;;8.57;6.60;;;;;;;6.39;100.00;98555.69;5005467;28;20217;-82
2023/10/27 06:02:38;;;;;;;8.27;6.40;;;;;;;6.40;100.00;98550.28;5003115;28;20652;-82
2023/10/27 06:05:05;;;;;;;8.87;6.67;;;;;;;6.40;100.00;98545.00;5002410;28;20230;-81
2023/10/27 06:07:32;;;;;;;11.20;7.07;;;;;;;6.42;100.00;98544.88;5002262;28;20222;-82
2023/10/27 06:09:58;;;;;;;8.53;6.33;;;;;;;6.42;100.00;98545.72;5002533;28;20694;-82
2023/10/27 06:12:25;;;;;;;8.20;6.10;;;;;;;6.39;100.00;98548.59;5005960;28;20253;-81
2023/10/27 06:14:53;;;;;;;8.73;6.00;;;;;;;6.38;100.00;98546.06;5000491;28;20230;-82
2023/10/27 06:17:19;;;;;;;8.67;6.80;;;;;;;6.38;100.00;98549.56;5006177;28;20208;-82
2023/10/27 06:19:45;;;;;;;8.40;6.37;;;;;;;6.37;100.00;98547.88;5002452;28;20218;-81
2023/10/27 06:22:12;;;;;;;9.33;6.77;;;;;;;6.39;100.00;98550.41;5002765;28;20203;-81
2023/10/27 06:24:39;;;;;;;9.20;6.83;;;;;;;6.38;100.00;98546.06;5006709;28;20602;-81
2023/10/27 06:27:06;;;;;;;9.43;6.40;;;;;;;6.39;100.00;98547.75;5011699;28;20206;-82
2023/10/27 06:29:33;;;;;;;11.83;6.73;;;;;;;6.40;100.00;98550.28;5019777;28;20218;-81
2023/10/27 06:32:03;;;;;;;25.40;8.80;;;;;;;6.41;100.00;98551.13;5016029;28;20268;-82
2023/10/27 06:34:29;;;;;;;41.77;9.83;;;;;;;6.40;100.00;98560.84;5004826;28;20226;-80
2023/10/27 06:36:56;;;;;;;32.27;8.90;;;;;;;6.40;100.00;98566.13;5024753;28;20597;-82
2023/10/27 06:39:23;;;;;;;23.47;7.70;;;;;;;6.42;100.00;98573.97;5002892;28;20636;-81
2023/10/27 06:41:50;;;;;;;16.03;6.53;;;;;;;6.43;100.00;98562.41;5005894;28;20218;-82
2023/10/27 06:44:16;;;;;;;11.77;6.73;;;;;;;6.43;100.00;98568.53;5017750;28;20945;-81
2023/10/27 06:46:44;;;;;;;10.47;6.83;;;;;;;6.44;100.00;98564.94;5003467;28;20233;-82
2023/10/27 06:49:13;;;;;;;12.00;7.40;;;;;;;6.45;100.00;98563.13;5003554;28;21714;-81
2023/10/27 06:51:39;;;;;;;10.87;7.07;;;;;;;6.48;100.00;98566.34;4997358;28;20861;-81
2023/10/27 06:54:06;;;;;;;10.83;7.23;;;;;;;6.51;100.00;98567.91;5001581;28;20218;-81
2023/10/27 06:56:33;;;;;;;15.20;8.87;;;;;;;6.54;100.00;98562.38;5003292;28;20274;-82
2023/10/27 06:58:59;;;;;;;12.23;8.23;;;;;;;6.57;100.00;98565.63;5005915;28;20667;-81
2023/10/27 07:01:25;;;;;;;13.37;8.50;;;;;;;6.59;100.00;98566.34;5002249;28;20207;-82
2023/10/27 07:03:52;;;;;;;13.27;8.30;;;;;;;6.62;100.00;98570.56;5011786;28;20206;-81
2023/10/27 07:06:20;;;;;;;14.67;8.23;;;;;;;6.65;100.00;98565.00;5000613;28;20203;-81
2023/10/27 07:08:46;;;;;;;17.03;9.03;;;;;;;6.69;100.00;98565.59;5003996;28;20206;-82
2023/10/27 07:11:13;;;;;;;12.87;8.50;;;;;;;6.72;100.00;98565.38;5019841;28;20214;-81
2023/10/27 07:13:40;;;;;;;16.27;9.37;;;;;;;6.75;100.00;98573.06;4997671;28;20207;-81
2023/10/27 07:16:07;;;;;;;16.30;11.57;;;;;;;6.78;100.00;98571.00;5005861;28;20227;-81
2023/10/27 07:18:33;;;;;;;19.90;11.57;;;;;;;6.81;100.00;98568.09;5004502;28;20207;-81
2023/10/27 07:21:00;;;;;;;19.80;11.57;;;;;;;6.84;100.00;98570.50;5004242;28;20203;-82
2023/10/27 07:23:28;;;;;;;19.43;9.83;;;;;;;6.87;100.00;98569.41;5000937;28;20212;-82
2023/10/27 07:25:55;;;;;;;14.70;9.33;;;;;;;6.91;100.00;98576.97;5003970;28;20290;-82
2023/10/27 07:28:21;;;;;;;12.50;8.70;;;;;;;6.95;100.00;98577.59;5001754;28;20211;-82
2023/10/27 07:30:48;;;;;;;17.37;9.87;;;;;;;6.97;100.00;98573.00;5000166;28;20214;-82
2023/10/27 07:33:14;;;;;;;16.90;10.57;;;;;;;6.99;100.00;98576.34;5002163;28;20315;-82
2023/10/27 07:35:41;;;;;;;16.83;11.00;;;;;;;7.02;100.00;98581.38;5000309;28;20219;-82
2023/10/27 07:38:07;;;;;;;17.97;9.83;;;;;;;7.05;100.00;98572.38;5002379;28;20217;-82
2023/10/27 07:40:41;;;;;;;10.90;8.97;;;;;;;7.07;100.00;98586.31;5009020;28;20203;-82
2023/10/27 07:43:08;;;;;;;10.63;8.07;;;;;;;7.07;100.00;98588.97;5001680;28;20257;-81
2023/10/27 07:45:34;;;;;;;12.67;8.87;;;;;;;7.07;100.00;98592.44;5001719;28;20234;-81
2023/10/27 07:48:02;;;;;;;11.37;8.40;;;;;;;7.10;100.00;98594.00;5006381;28;20207;-81
2023/10/27 07:50:29;;;;;;;12.00;8.73;;;;;;;7.10;100.00;98586.91;5005570;28;20284;-81
2023/10/27 07:52:56;;;;;;;12.73;8.40;;;;;;;7.12;100.00;98590.28;5002191;28;20426;-83
2023/10/27 07:55:22;;;;;;;11.67;8.60;;;;;;;7.14;100.00;98590.16;5005960;28;20697;-82
2023/10/27 07:57:50;;;;;;;10.40;7.60;;;;;;;7.17;100.00;98585.44;5003614;28;20959;-82
2023/10/27 08:00:17;;;;;;;11.73;7.63;;;;;;;7.18;100.00;98583.63;4999865;28;20207;-82
2023/10/27 08:02:43;;;;;;;11.87;7.90;;;;;;;7.21;100.00;98591.31;5008873;28;20214;-81
2023/10/27 08:05:10;;;;;;;10.80;8.07;;;;;;;7.22;100.00;98588.53;5008835;28;20239;-81
2023/10/27 08:07:37;;;;;;;11.47;8.70;;;;;;;7.28;100.00;98587.22;5006682;28;20208;-82
2023/10/27 08:10:07;;;;;;;12.83;8.57;;;;;;;7.27;100.00;98589.00;5006326;28;20667;-81
2023/10/27 08:12:34;;;;;;;13.07;9.60;;;;;;;7.30;100.00;98593.22;5010620;28;20230;-82
2023/10/27 08:15:04;;;;;;;12.00;10.10;;;;;;;7.32;100.00;98592.13;5002819;28;20227;-81
2023/10/27 08:17:31;;;;;;;13.60;9.43;;;;;;;7.36;100.00;98591.84;5005988;28;21554;-82
2023/10/27 08:19:58;;;;;;;17.07;10.60;;;;;;;7.39;100.00;98591.59;5006448;28;20211;-81
2023/10/27 08:22:24;;;;;;;16.43;10.40;;;;;;;7.41;100.00;98598.47;5005484;28;20199;-81
2023/10/27 08:24:51;;;;;;;16.97;10.00;;;;;;;7.44;100.00;98600.00;5007218;28;20721;-82
2023/10/27 08:27:17;;;;;;;17.47;10.10;;;;;;;7.47;100.00;98602.41;5009168;28;20218;-82
2023/10/27 08:29:44;;;;;;;13.67;9.40;;;;;;;7.50;100.00;98604.81;5011523;28;20206;-82
2023/10/27 08:32:13;;;;;;;17.23;9.77;;;;;;;7.54;100.00;98604.41;5005393;28;20877;-82
2023/10/27 08:34:40;;;;;;;13.07;9.23;;;;;;;7.58;100.00;98607.66;5007313;28;20259;-81
2023/10/27 08:37:06;;;;;;;13.07;8.37;;;;;;;7.59;100.00;98604.88;5007235;28;20268;-82
2023/10/27 08:39:34;;;;;;;14.13;9.87;;;;;;;7.63;100.00;98602.81;5012514;28;20218;-82
2023/10/27 08:42:01;;;;;;;11.93;9.40;;;;;;;7.66;100.00;98599.91;5008658;28;20218;-82
2023/10/27 08:44:28;;;;;;;16.67;9.13;;;;;;;7.70;100.00;98605.81;5017909;28;20591;-81
2023/10/27 08:46:55;;;;;;;15.73;9.67;;;;;;;7.73;100.00;98609.00;5020224;28;20203;-82
2023/10/27 08:49:22;;;;;;;12.43;8.63;;;;;;;7.76;100.00;98610.56;5001475;28;20726;-81
2023/10/27 08:51:49;;;;;;;15.43;11.10;;;;;;;7.78;100.00;98614.78;5004576;28;20211;-81
2023/10/27 08:54:16;;;;;;;17.50;10.00;;;;;;;7.81;100.00;98611.03;5004160;28;20234;-80
2023/10/27 08:56:43;;;;;;;13.30;9.53;;;;;;;7.84;100.00;98608.97;5004205;28;20215;-81
2023/10/27 08:59:10;;;;;;;17.40;10.60;;;;;;;7.87;100.00;98616.66;5004993;28;20222;-82
2023/10/27 09:01:37;;;;;;;16.13;10.30;;;;;;;7.90;100.00;98610.22;5009263;28;20218;-82
2023/10/27 09:04:12;;;;;;;14.27;10.77;;;;;;;7.94;100.00;98609.84;5006364;28;20211;-82
2023/10/27 09:06:41;;;;;;;15.07;10.13;;;;;;;7.95;100.00;98603.59;5006031;28;20206;-81
2023/10/27 09:09:09;;;;;;;19.10;11.50;;;;;;;7.97;100.00;98606.94;5006427;28;20672;-82
2023/10/27 09:11:41;;;;;;;19.50;11.63;;;;;;;8.01;100.00;98611.03;5007020;28;20225;-82
2023/10/27 09:14:17;;;;;;;15.77;10.50;;;;;;;8.07;100.00;98608.78;5007838;28;20249;-81
2023/10/27 09:16:44;;;;;;;19.47;10.73;;;;;;;8.09;100.00;98597.09;5001395;28;20202;-82
2023/10/27 09:19:21;;;;;;;15.40;10.97;;;;;;;8.14;100.00;98599.34;5026840;28;20200;-81
2023/10/27 09:21:49;;;;;;;16.03;11.10;;;;;;;8.18;100.00;98606.94;4999896;28;20210;-82
2023/10/27 09:24:22;;;;;;;21.47;11.77;;;;;;;8.22;100.00;98599.56;5003389;28;20237;-82
2023/10/27 09:26:49;;;;;;;18.97;11.30;;;;;;;8.24;100.00;98594.97;4999638;28;20207;-81
2023/10/27 09:29:16;;;;;;;22.30;12.20;;;;;;;8.27;100.00;98600.81;5005856;28;20211;-81
2023/10/27 09:31:43;;;;;;;16.07;10.80;;;;;;;8.30;100.00;98591.75;5003475;28;20260;-81
2023/10/27 09:34:21;;;;;;;20.90;11.57;;;;;;;8.34;100.00;98604.66;5006907;28;20200;-82
2023/10/27 09:36:51;;;;;;;19.07;10.47;;;;;;;8.38;100.00;98588.47;5016624;28;20238;-81
2023/10/27 09:39:20;;;;;;;19.63;11.00;;;;;;;8.41;100.00;98601.50;5008578;28;20280;-81
2023/10/27 09:41:48;;;;;;;25.57;12.13;;;;;;;8.44;100.00;98596.72;5000033;28;20238;-81
2023/10/27 09:44:16;;;;;;;19.90;11.80;;;;;;;8.50;100.00;98598.03;5001516;28;20215;-82
2023/10/27 09:46:49;;;;;;;19.73;11.13;;;;;;;8.55;100.00;98593.16;5009772;28;20257;-81
2023/10/27 09:49:21;;;;;;;20.87;12.00;;;;;;;8.60;100.00;98598.88;5008788;28;20204;-82
2023/10/27 09:51:50;;;;;;;22.57;11.87;;;;;;;8.66;100.00;98591.22;4996469;28;20223;-82
2023/10/27 09:54:16;;;;;;;21.93;12.37;;;;;;;8.72;100.00;98584.56;5010943;28;20746;-82
2023/10/27 09:56:43;;;;;;;17.33;11.50;;;;;;;8.80;100.00;98584.69;5003062;28;20203;-82
2023/10/27 09:59:10;;;;;;;18.83;11.93;;;;;;;8.84;100.00;98578.16;5008243;28;20204;-82
2023/10/27 10:01:39;;;;;;;20.23;13.00;;;;;;;8.89;100.00;98578.59;5001414;28;20202;-82
2023/10/27 10:04:06;;;;;;;22.57;11.60;;;;;;;8.94;100.00;98584.31;5000931;28;20275;-81
2023/10/27 10:06:34;;;;;;;22.03;12.73;;;;;;;9.01;100.00;98581.94;5004133;28;20207;-81
2023/10/27 10:09:14;;;;;;;20.93;12.73;;;;;;;9.04;100.00;98587.81;5005836;28;20238;-81
2023/10/27 10:11:55;;;;;;;23.50;13.50;;;;;;;9.10;100.00;98583.78;5003859;28;20210;-81
2023/10/27 10:14:49;;;;;;;25.63;12.90;;;;;;;9.11;100.00;98579.31;5001733;28;20227;-81
2023/10/27 10:17:40;;;;;;;21.27;12.83;;;;;;;9.11;100.00;98585.47;5021974;28;21036;-81
2023/10/27 10:20:09;;;;;;;19.23;12.83;;;;;;;9.13;100.00;98594.13;5004586;28;20263;-82
2023/10/27 10:22:55;;;;;;;22.90;12.47;;;;;;;9.15;100.00;98586.00;5015370;28;20200;-82
2023/10/27 10:25:29;;;;;;;20.43;12.23;;;;;;;9.19;100.00;98590.91;5004867;28;20229;-82
2023/10/27 10:28:27;;;;;;;18.97;11.97;;;;;;;9.20;100.00;98589.94;5010431;28;20211;-82
2023/10/27 10:31:24;;;;;;;19.43;11.93;;;;;;;9.19;100.00;98588.25;5013712;28;20213;-81
2023/10/27 10:33:52;;;;;;;16.87;11.33;;;;;;;9.20;100.00;98578.47;4968392;28;20266;-82
2023/10/27 10:36:26;;;;;;;18.70;11.93;;;;;;;9.25;100.00;98589.53;5005301;28;20234;-82
2023/10/27 10:39:03;;;;;;;18.23;11.30;;;;;;;9.28;100.00;98583.94;5001998;28;20195;-82
2023/10/27 10:42:02;;;;;;;17.77;10.77;;;;;;;9.29;100.00;98583.81;5004828;28;20202;-82
2023/10/27 10:44:32;;;;;;;15.90;10.33;;;;;;;9.31;100.00;98587.16;5011546;28;20220;-82
2023/10/27 10:47:03;;;;;;;16.37;10.73;;;;;;;9.35;100.00;98580.56;5002458;28;20210;-83
2023/10/27 10:49:30;;;;;;;13.83;10.57;;;;;;;9.37;100.00;98589.25;5003286;28;20235;-82
2023/10/27 10:51:58;;;;;;;15.93;11.57;;;;;;;9.42;100.00;98590.66;5005748;28;20286;-82
2023/10/27 10:54:30;;;;;;;17.13;10.33;;;;;;;9.42;100.00;98591.50;5001268;28;20313;-82
2023/10/27 10:57:03;;;;;;;16.37;11.07;;;;;;;9.44;100.00;98586.03;5004293;28;20228;-81
2023/10/27 10:59:29;;;;;;;16.30;10.33;;;;;;;9.45;100.00;98580.59;5001963;28;20203;-82
2023/10/27 11:01:56;;;;;;;15.87;10.07;;;;;;;9.50;100.00;98580.16;5004634;28;20206;-81
2023/10/27 11:04:29;;;;;;;16.30;11.63;;;;;;;9.53;100.00;98580.72;4997568;28;20265;-82
2023/10/27 11:06:59;;;;;;;14.10;10.60;;;;;;;9.57;100.00;98582.09;5002531;28;20208;-82
2023/10/27 11:09:25;;;;;;;14.30;10.63;;;;;;;9.59;100.00;98577.50;5005197;28;20226;-83
2023/10/27 11:11:52;;;;;;;16.07;10.87;;;;;;;9.61;100.00;98580.84;5018207;28;20204;-81
2023/10/27 11:14:20;;;;;;;15.60;11.07;;;;;;;9.64;100.00;98572.59;5007569;28;20223;-81
2023/10/27 11:16:55;;;;;;;14.23;10.57;;;;;;;9.67;100.00;98582.94;4999834;28;20210;-82
2023/10/27 11:19:22;;;;;;;14.30;10.20;;;;;;;9.69;100.00;98577.47;5009600;28;20219;-82
2023/10/27 11:21:52;;;;;;;15.20;10.87;;;;;;;9.69;100.00;98580.13;5007817;28;20206;-82
2023/10/27 11:24:19;;;;;;;14.53;9.30;;;;;;;9.69;100.00;98574.81;5003534;28;20232;-82
2023/10/27 11:26:45;;;;;;;18.63;10.90;;;;;;;9.71;100.00;98583.47;5009081;28;20199;-83
2023/10/27 11:29:12;;;;;;;17.00;9.83;;;;;;;9.71;100.00;98581.66;5008140;28;20212;-83
2023/10/27 11:31:41;;;;;;;16.30;10.70;;;;;;;9.72;100.00;98575.38;5011601;28;20567;-82
2023/10/27 11:34:09;;;;;;;14.97;9.50;;;;;;;9.75;100.00;98574.25;5006294;28;20228;-82